createdAt,value
2017-07-05T00:01:05.524Z,945.2
2017-07-05T00:02:13.615Z,945.2
2017-07-05T00:03:21.703Z,945.2
2017-07-05T00:04:29.846Z,945.2
2017-07-05T00:05:37.998Z,945.2
2017-07-05T00:06:45.965Z,945.2
2017-07-05T00:07:54.052Z,945.2
2017-07-05T00:09:02.138Z,945.2
2017-07-05T00:10:10.232Z,945.2
2017-07-05T00:11:18.439Z,945.2
2017-07-05T00:12:26.406Z,945.1
2017-07-05T00:13:34.496Z,945.1
2017-07-05T00:14:42.662Z,945.1
2017-07-05T00:15:50.851Z,945.1
2017-07-05T00:16:58.814Z,945.1
2017-07-05T00:18:06.847Z,945.0
2017-07-05T00:19:14.936Z,945.1
2017-07-05T00:20:23.079Z,945.1
2017-07-05T00:21:31.152Z,945.1
2017-07-05T00:22:39.255Z,945.0
2017-07-05T00:23:47.286Z,945.0
2017-07-05T00:24:55.374Z,945.1
2017-07-05T00:26:03.461Z,945.0
2017-07-05T00:27:11.548Z,945.0
2017-07-05T00:28:19.694Z,945.0
2017-07-05T00:29:27.723Z,945.0
2017-07-05T00:30:35.813Z,945.0
2017-07-05T00:31:44.054Z,945.0
2017-07-05T00:32:52.141Z,945.0
2017-07-05T00:34:00.134Z,945.0
2017-07-05T00:35:08.163Z,945.0
2017-07-05T00:36:16.306Z,945.0
2017-07-05T00:37:24.339Z,945.0
2017-07-05T00:38:32.473Z,945.0
2017-07-05T00:39:40.570Z,944.9
2017-07-05T00:40:48.603Z,944.9
2017-07-05T00:41:56.694Z,944.9
2017-07-05T00:43:04.778Z,945.0
2017-07-05T00:44:12.866Z,945.0
2017-07-05T00:45:21.010Z,945.0
2017-07-05T00:46:29.044Z,944.9
2017-07-05T00:47:37.130Z,945.0
2017-07-05T00:48:45.260Z,945.0
2017-07-05T00:49:53.436Z,944.9
2017-07-05T00:51:01.517Z,944.9
2017-07-05T00:52:09.543Z,944.9
2017-07-05T00:53:17.573Z,945.0
2017-07-05T00:54:25.659Z,945.0
2017-07-05T00:55:33.747Z,945.0
2017-07-05T00:56:41.891Z,945.0
2017-07-05T00:57:49.924Z,945.0
2017-07-05T00:58:58.012Z,945.0
2017-07-05T01:00:06.278Z,945.0
2017-07-05T01:01:14.187Z,945.0
2017-07-05T01:02:22.333Z,945.1
2017-07-05T01:03:30.366Z,945.0
2017-07-05T01:04:38.451Z,945.0
2017-07-05T01:05:46.589Z,945.1
2017-07-05T01:06:54.671Z,945.1
2017-07-05T01:08:02.838Z,945.0
2017-07-05T01:09:10.805Z,945.0
2017-07-05T01:10:18.894Z,945.0
2017-07-05T01:11:26.984Z,945.0
2017-07-05T01:12:35.070Z,945.0
2017-07-05T01:13:43.278Z,945.0
2017-07-05T01:14:51.243Z,945.0
2017-07-05T01:15:59.332Z,945.0
2017-07-05T01:17:07.517Z,945.0
2017-07-05T01:18:15.507Z,945.0
2017-07-05T01:19:23.652Z,945.0
2017-07-05T01:20:31.684Z,945.0
2017-07-05T01:21:39.773Z,945.0
2017-07-05T01:22:47.869Z,945.0
2017-07-05T01:23:56.004Z,945.0
2017-07-05T01:25:04.093Z,945.0
2017-07-05T01:26:12.123Z,945.1
2017-07-05T01:27:20.210Z,945.0
2017-07-05T01:28:28.497Z,945.0
2017-07-05T01:29:36.393Z,945.0
2017-07-05T01:30:44.536Z,945.0
2017-07-05T01:31:52.569Z,945.0
2017-07-05T01:33:00.653Z,945.0
2017-07-05T01:34:08.750Z,945.0
2017-07-05T01:35:16.830Z,945.0
2017-07-05T01:36:24.977Z,944.9
2017-07-05T01:37:33.011Z,945.0
2017-07-05T01:38:41.100Z,944.9
2017-07-05T01:39:49.262Z,944.9
2017-07-05T01:40:57.306Z,944.9
2017-07-05T01:42:05.418Z,944.9
2017-07-05T01:43:13.452Z,944.9
2017-07-05T01:44:21.540Z,944.9
2017-07-05T01:45:29.626Z,944.9
2017-07-05T01:46:37.714Z,944.9
2017-07-05T01:47:45.865Z,944.9
2017-07-05T01:48:53.895Z,944.9
2017-07-05T01:50:01.981Z,944.9
2017-07-05T01:51:10.172Z,944.9
2017-07-05T01:52:18.159Z,944.9
2017-07-05T01:53:26.366Z,944.9
2017-07-05T01:54:34.334Z,944.9
2017-07-05T01:55:42.481Z,944.9
2017-07-05T01:56:50.537Z,944.9
2017-07-05T01:57:58.598Z,944.9
2017-07-05T01:59:06.738Z,944.9
2017-07-05T02:00:14.770Z,944.9
2017-07-05T02:01:22.860Z,944.8
2017-07-05T02:02:31.124Z,944.8
2017-07-05T02:03:39.035Z,944.8
2017-07-05T02:04:47.178Z,944.8
2017-07-05T02:05:55.211Z,944.8
2017-07-05T02:07:03.297Z,944.8
2017-07-05T02:08:11.443Z,944.8
2017-07-05T02:09:19.471Z,944.7
2017-07-05T02:10:27.617Z,944.7
2017-07-05T02:11:35.768Z,944.7
2017-07-05T02:12:43.740Z,944.7
2017-07-05T02:13:52.014Z,944.7
2017-07-05T02:14:59.915Z,944.7
2017-07-05T02:16:08.059Z,944.7
2017-07-05T02:17:16.090Z,944.7
2017-07-05T02:18:24.176Z,944.7
2017-07-05T02:19:32.454Z,944.7
2017-07-05T02:20:40.353Z,944.7
2017-07-05T02:21:48.498Z,944.7
2017-07-05T02:22:56.526Z,944.7
2017-07-05T02:24:04.617Z,944.7
2017-07-05T02:25:12.705Z,944.7
2017-07-05T02:26:20.791Z,944.7
2017-07-05T02:27:28.999Z,944.7
2017-07-05T02:28:36.964Z,944.6
2017-07-05T02:29:45.051Z,944.6
2017-07-05T02:30:53.226Z,944.7
2017-07-05T02:32:01.238Z,944.6
2017-07-05T02:33:09.371Z,944.7
2017-07-05T02:34:17.403Z,944.6
2017-07-05T02:35:25.491Z,944.6
2017-07-05T02:36:33.578Z,944.7
2017-07-05T02:37:41.667Z,944.7
2017-07-05T02:38:49.807Z,944.7
2017-07-05T02:39:57.845Z,944.6
2017-07-05T02:41:05.935Z,944.6
2017-07-05T02:42:14.176Z,944.6
2017-07-05T02:43:22.229Z,944.6
2017-07-05T02:44:30.254Z,944.6
2017-07-05T02:45:38.284Z,944.6
2017-07-05T02:46:46.370Z,944.6
2017-07-05T02:47:54.487Z,944.6
2017-07-05T02:49:02.568Z,944.6
2017-07-05T02:50:10.743Z,944.6
2017-07-05T02:51:18.722Z,944.6
2017-07-05T02:52:26.813Z,944.6
2017-07-05T02:53:34.899Z,944.6
2017-07-05T02:54:42.986Z,944.6
2017-07-05T02:55:51.135Z,944.6
2017-07-05T02:56:59.158Z,944.6
2017-07-05T02:58:07.248Z,944.6
2017-07-05T02:59:15.537Z,944.6
2017-07-05T03:00:23.423Z,944.6
2017-07-05T03:01:31.565Z,944.6
2017-07-05T03:02:39.599Z,944.6
2017-07-05T03:03:47.687Z,944.6
2017-07-05T03:04:55.852Z,944.6
2017-07-05T03:06:03.859Z,944.6
2017-07-05T03:07:12.002Z,944.7
2017-07-05T03:08:20.035Z,944.6
2017-07-05T03:09:28.121Z,944.6
2017-07-05T03:10:36.402Z,944.6
2017-07-05T03:11:44.303Z,944.6
2017-07-05T03:12:52.448Z,944.6
2017-07-05T03:14:00.478Z,944.6
2017-07-05T03:15:08.619Z,944.6
2017-07-05T03:16:16.760Z,944.7
2017-07-05T03:17:24.740Z,944.7
2017-07-05T03:18:32.946Z,944.6
2017-07-05T03:19:40.915Z,944.6
2017-07-05T03:20:49.002Z,944.7
2017-07-05T03:21:57.187Z,944.6
2017-07-05T03:23:05.177Z,944.6
2017-07-05T03:24:13.320Z,944.6
2017-07-05T03:25:21.352Z,944.6
2017-07-05T03:26:29.440Z,944.6
2017-07-05T03:27:37.526Z,944.6
2017-07-05T03:28:45.613Z,944.6
2017-07-05T03:29:53.756Z,944.6
2017-07-05T03:31:01.911Z,944.6
2017-07-05T03:32:09.879Z,944.6
2017-07-05T03:33:18.034Z,944.6
2017-07-05T03:34:26.052Z,944.6
2017-07-05T03:35:34.193Z,944.6
2017-07-05T03:36:42.226Z,944.6
2017-07-05T03:37:50.314Z,944.6
2017-07-05T03:38:58.478Z,944.6
2017-07-05T03:40:06.493Z,944.6
2017-07-05T03:41:14.634Z,944.6
2017-07-05T03:42:22.667Z,944.6
2017-07-05T03:43:30.753Z,944.6
2017-07-05T03:44:38.997Z,944.6
2017-07-05T03:45:46.928Z,944.6
2017-07-05T03:46:55.136Z,944.6
2017-07-05T03:48:03.103Z,944.6
2017-07-05T03:49:11.193Z,944.5
2017-07-05T03:50:19.331Z,944.5
2017-07-05T03:51:27.366Z,944.5
2017-07-05T03:52:35.510Z,944.6
2017-07-05T03:53:43.539Z,944.6
2017-07-05T03:54:51.626Z,944.6
2017-07-05T03:55:59.804Z,944.5
2017-07-05T03:57:08.501Z,944.5
2017-07-05T03:58:15.947Z,944.5
2017-07-05T03:59:24.227Z,944.5
2017-07-05T04:00:32.067Z,944.5
2017-07-05T04:01:40.166Z,944.6
2017-07-05T04:02:48.361Z,944.6
2017-07-05T04:03:56.385Z,944.6
2017-07-05T04:05:04.414Z,944.6
2017-07-05T04:06:12.501Z,944.6
2017-07-05T04:07:20.947Z,944.6
2017-07-05T04:08:28.677Z,944.6
2017-07-05T04:09:36.820Z,944.6
2017-07-05T04:10:44.852Z,944.6
2017-07-05T04:11:52.938Z,944.6
2017-07-05T04:13:01.040Z,944.6
2017-07-05T04:14:09.125Z,944.6
2017-07-05T04:15:17.255Z,944.6
2017-07-05T04:16:25.290Z,944.6
2017-07-05T04:17:33.375Z,944.6
2017-07-05T04:18:41.711Z,944.6
2017-07-05T04:19:49.551Z,944.7
2017-07-05T04:20:57.858Z,944.6
2017-07-05T04:22:05.972Z,944.7
2017-07-05T04:23:13.811Z,944.7
2017-07-05T04:24:22.001Z,944.7
2017-07-05T04:25:29.989Z,944.7
2017-07-05T04:26:38.132Z,944.7
2017-07-05T04:27:46.164Z,944.7
2017-07-05T04:28:54.250Z,944.6
2017-07-05T04:30:02.445Z,944.6
2017-07-05T04:31:10.528Z,944.7
2017-07-05T04:32:18.569Z,944.7
2017-07-05T04:33:26.619Z,944.6
2017-07-05T04:34:34.748Z,944.6
2017-07-05T04:35:42.842Z,944.6
2017-07-05T04:36:50.868Z,944.6
2017-07-05T04:37:59.074Z,944.6
2017-07-05T04:39:07.043Z,944.6
2017-07-05T04:40:15.151Z,944.6
2017-07-05T04:41:23.247Z,944.6
2017-07-05T04:42:31.332Z,944.6
2017-07-05T04:43:39.450Z,944.6
2017-07-05T04:44:47.475Z,944.6
2017-07-05T04:45:55.563Z,944.6
2017-07-05T04:47:03.689Z,944.6
2017-07-05T04:48:11.738Z,944.6
2017-07-05T04:49:19.882Z,944.6
2017-07-05T04:50:27.968Z,944.6
2017-07-05T04:51:35.999Z,944.6
2017-07-05T04:52:44.247Z,944.6
2017-07-05T04:53:52.174Z,944.7
2017-07-05T04:55:00.316Z,944.6
2017-07-05T04:56:08.354Z,944.6
2017-07-05T04:57:16.443Z,944.7
2017-07-05T04:58:24.574Z,944.7
2017-07-05T04:59:32.617Z,944.7
2017-07-05T05:00:40.758Z,944.8
2017-07-05T05:01:48.791Z,944.7
2017-07-05T05:02:56.880Z,944.8
2017-07-05T05:04:05.020Z,944.8
2017-07-05T05:05:13.053Z,944.8
2017-07-05T05:06:21.260Z,944.8
2017-07-05T05:07:29.229Z,944.8
2017-07-05T05:08:37.322Z,944.8
2017-07-05T05:09:45.416Z,944.8
2017-07-05T05:10:53.503Z,944.7
2017-07-05T05:12:01.645Z,944.7
2017-07-05T05:13:09.676Z,944.7
2017-07-05T05:14:17.764Z,944.7
2017-07-05T05:15:25.856Z,944.7
2017-07-05T05:16:33.940Z,944.7
2017-07-05T05:17:42.081Z,944.7
2017-07-05T05:18:50.113Z,944.8
2017-07-05T05:19:58.207Z,944.8
2017-07-05T05:21:06.384Z,944.7
2017-07-05T05:22:14.447Z,944.8
2017-07-05T05:23:22.536Z,944.8
2017-07-05T05:24:30.565Z,944.8
2017-07-05T05:25:38.653Z,944.7
2017-07-05T05:26:46.840Z,944.7
2017-07-05T05:27:54.828Z,944.7
2017-07-05T05:29:02.974Z,944.7
2017-07-05T05:30:11.003Z,944.8
2017-07-05T05:31:19.091Z,944.8
2017-07-05T05:32:27.282Z,944.7
2017-07-05T05:33:35.265Z,944.8
2017-07-05T05:34:43.469Z,944.8
2017-07-05T05:35:51.439Z,944.7
2017-07-05T05:36:59.526Z,944.8
2017-07-05T05:38:07.674Z,944.8
2017-07-05T05:39:15.701Z,944.7
2017-07-05T05:40:23.846Z,944.8
2017-07-05T05:41:31.875Z,944.7
2017-07-05T05:42:39.964Z,944.8
2017-07-05T05:43:48.048Z,944.7
2017-07-05T05:44:56.136Z,944.8
2017-07-05T05:46:04.286Z,944.8
2017-07-05T05:47:12.318Z,944.8
2017-07-05T05:48:20.403Z,944.8
2017-07-05T05:49:28.586Z,944.8
2017-07-05T05:50:36.580Z,944.8
2017-07-05T05:51:44.722Z,944.8
2017-07-05T05:52:52.752Z,944.8
2017-07-05T05:54:00.898Z,944.8
2017-07-05T05:55:09.032Z,944.8
2017-07-05T05:56:17.017Z,944.8
2017-07-05T05:57:25.161Z,944.8
2017-07-05T05:58:33.189Z,944.8
2017-07-05T05:59:41.279Z,944.8
2017-07-05T06:00:49.550Z,944.8
2017-07-05T06:01:57.453Z,944.8
2017-07-05T06:03:05.595Z,944.8
2017-07-05T06:04:13.627Z,944.8
2017-07-05T06:05:21.715Z,944.8
2017-07-05T06:06:29.803Z,944.8
2017-07-05T06:07:37.891Z,944.8
2017-07-05T06:08:46.032Z,944.8
2017-07-05T06:09:54.123Z,944.8
2017-07-05T06:11:02.151Z,944.8
2017-07-05T06:12:10.327Z,944.8
2017-07-05T06:13:18.327Z,944.8
2017-07-05T06:14:26.470Z,944.8
2017-07-05T06:15:34.500Z,944.8
2017-07-05T06:16:42.589Z,944.8
2017-07-05T06:17:50.868Z,944.8
2017-07-05T06:18:58.764Z,944.8
2017-07-05T06:20:06.912Z,944.8
2017-07-05T06:21:14.945Z,944.9
2017-07-05T06:22:23.033Z,944.9
2017-07-05T06:23:31.238Z,944.9
2017-07-05T06:24:39.205Z,944.9
2017-07-05T06:25:47.413Z,944.9
2017-07-05T06:26:55.382Z,944.8
2017-07-05T06:28:03.471Z,944.9
2017-07-05T06:29:11.579Z,944.9
2017-07-05T06:30:19.661Z,944.9
2017-07-05T06:31:27.792Z,944.9
2017-07-05T06:32:35.825Z,944.9
2017-07-05T06:33:43.911Z,944.9
2017-07-05T06:34:52.188Z,944.9
2017-07-05T06:36:00.090Z,944.9
2017-07-05T06:37:08.295Z,944.9
2017-07-05T06:38:16.260Z,944.9
2017-07-05T06:39:24.349Z,945.0
2017-07-05T06:40:32.529Z,945.0
2017-07-05T06:41:40.644Z,945.0
2017-07-05T06:42:48.667Z,945.0
2017-07-05T06:43:56.698Z,945.0
2017-07-05T06:45:04.785Z,944.9
2017-07-05T06:46:13.052Z,945.0
2017-07-05T06:47:20.959Z,945.0
2017-07-05T06:48:29.101Z,945.0
2017-07-05T06:49:37.133Z,945.0
2017-07-05T06:50:45.223Z,945.0
2017-07-05T06:51:53.455Z,945.0
2017-07-05T06:53:01.398Z,945.0
2017-07-05T06:54:09.541Z,945.0
2017-07-05T06:55:17.573Z,945.0
2017-07-05T06:56:25.660Z,945.0
2017-07-05T06:57:33.805Z,945.0
2017-07-05T06:58:41.835Z,945.0
2017-07-05T06:59:49.982Z,945.0
2017-07-05T07:00:58.014Z,945.0
2017-07-05T07:02:06.108Z,945.0
2017-07-05T07:03:14.207Z,945.0
2017-07-05T07:04:22.285Z,945.0
2017-07-05T07:05:30.489Z,945.0
2017-07-05T07:06:38.458Z,945.0
2017-07-05T07:07:46.547Z,944.9
2017-07-05T07:08:54.789Z,945.0
2017-07-05T07:10:02.720Z,945.0
2017-07-05T07:11:10.866Z,945.0
2017-07-05T07:12:18.895Z,945.0
2017-07-05T07:13:27.038Z,945.0
2017-07-05T07:14:35.105Z,944.9
2017-07-05T07:15:43.156Z,944.9
2017-07-05T07:16:51.300Z,945.0
2017-07-05T07:17:59.332Z,945.0
2017-07-05T07:19:07.420Z,945.0
2017-07-05T07:20:15.544Z,945.0
2017-07-05T07:21:23.597Z,945.0
2017-07-05T07:22:31.804Z,945.0
2017-07-05T07:23:39.768Z,945.0
2017-07-05T07:24:47.858Z,945.0
2017-07-05T07:25:56.065Z,945.0
2017-07-05T07:27:04.030Z,945.0
2017-07-05T07:28:12.178Z,945.0
2017-07-05T07:29:20.261Z,945.0
2017-07-05T07:30:28.295Z,945.0
2017-07-05T07:31:36.405Z,945.0
2017-07-05T07:32:44.471Z,945.0
2017-07-05T07:33:52.610Z,945.0
2017-07-05T07:35:00.786Z,945.0
2017-07-05T07:36:08.729Z,945.1
2017-07-05T07:37:16.836Z,945.1
2017-07-05T07:38:24.906Z,945.0
2017-07-05T07:39:33.050Z,945.1
2017-07-05T07:40:41.082Z,945.0
2017-07-05T07:41:49.169Z,945.0
2017-07-05T07:42:57.398Z,945.0
2017-07-05T07:44:05.345Z,945.0
2017-07-05T07:45:13.549Z,945.0
2017-07-05T07:46:21.521Z,945.0
2017-07-05T07:47:29.604Z,945.0
2017-07-05T07:48:37.693Z,945.0
2017-07-05T07:49:45.782Z,945.0
2017-07-05T07:50:53.925Z,945.0
2017-07-05T07:52:01.957Z,945.0
2017-07-05T07:53:10.047Z,945.0
2017-07-05T07:54:18.182Z,945.0
2017-07-05T07:55:26.219Z,945.0
2017-07-05T07:56:34.363Z,945.0
2017-07-05T07:57:42.393Z,945.0
2017-07-05T07:58:50.482Z,945.0
2017-07-05T07:59:58.695Z,945.0
2017-07-05T08:01:06.720Z,945.1
2017-07-05T08:02:14.873Z,945.1
2017-07-05T08:03:22.839Z,945.1
2017-07-05T08:04:30.926Z,945.1
2017-07-05T08:05:39.059Z,945.1
2017-07-05T08:06:47.104Z,945.1
2017-07-05T08:07:55.248Z,945.1
2017-07-05T08:09:03.278Z,945.1
2017-07-05T08:10:11.366Z,945.1
2017-07-05T08:11:19.495Z,945.1
2017-07-05T08:12:27.542Z,945.0
2017-07-05T08:13:35.684Z,945.1
2017-07-05T08:14:43.715Z,945.1
2017-07-05T08:15:51.808Z,945.1
2017-07-05T08:17:00.109Z,945.1
2017-07-05T08:18:07.980Z,945.1
2017-07-05T08:19:16.199Z,945.0
2017-07-05T08:20:24.157Z,945.1
2017-07-05T08:21:32.247Z,945.1
2017-07-05T08:22:40.406Z,945.1
2017-07-05T08:23:48.426Z,945.0
2017-07-05T08:24:56.569Z,945.0
2017-07-05T08:26:04.601Z,945.0
2017-07-05T08:27:12.689Z,945.0
2017-07-05T08:28:20.826Z,945.1
2017-07-05T08:29:28.866Z,945.0
2017-07-05T08:30:37.011Z,945.0
2017-07-05T08:31:45.042Z,945.1
2017-07-05T08:32:53.184Z,945.1
2017-07-05T08:34:01.359Z,945.1
2017-07-05T08:35:09.304Z,945.1
2017-07-05T08:36:17.512Z,945.0
2017-07-05T08:37:25.481Z,945.0
2017-07-05T08:38:33.570Z,945.0
2017-07-05T08:39:41.674Z,945.0
2017-07-05T08:40:49.745Z,945.0
2017-07-05T08:41:57.888Z,945.0
2017-07-05T08:43:05.923Z,945.0
2017-07-05T08:44:14.009Z,945.0
2017-07-05T08:45:22.132Z,945.0
2017-07-05T08:46:30.185Z,945.0
2017-07-05T08:47:38.330Z,945.0
2017-07-05T08:48:46.418Z,945.0
2017-07-05T08:49:54.450Z,945.0
2017-07-05T08:51:02.638Z,945.0
2017-07-05T08:52:10.625Z,945.0
2017-07-05T08:53:18.770Z,945.0
2017-07-05T08:54:26.799Z,945.0
2017-07-05T08:55:34.890Z,945.0
2017-07-05T08:56:42.977Z,945.0
2017-07-05T08:57:51.064Z,944.9
2017-07-05T08:58:59.210Z,944.9
2017-07-05T09:00:07.243Z,944.9
2017-07-05T09:01:15.486Z,945.0
2017-07-05T09:02:23.480Z,944.9
2017-07-05T09:03:31.505Z,944.9
2017-07-05T09:04:39.649Z,944.9
2017-07-05T09:05:47.682Z,944.9
2017-07-05T09:06:55.770Z,944.9
2017-07-05T09:08:03.857Z,944.9
2017-07-05T09:09:11.950Z,944.9
2017-07-05T09:10:20.158Z,944.9
2017-07-05T09:11:28.125Z,944.9
2017-07-05T09:12:36.212Z,944.9
2017-07-05T09:13:44.300Z,944.9
2017-07-05T09:14:52.389Z,944.9
2017-07-05T09:16:00.532Z,944.9
2017-07-05T09:17:08.567Z,944.9
2017-07-05T09:18:16.778Z,944.9
2017-07-05T09:19:24.768Z,944.9
2017-07-05T09:20:32.888Z,944.9
2017-07-05T09:21:40.974Z,944.9
2017-07-05T09:22:49.004Z,944.9
2017-07-05T09:23:57.094Z,944.9
2017-07-05T09:25:05.186Z,944.9
2017-07-05T09:26:13.270Z,944.9
2017-07-05T09:27:21.481Z,944.9
2017-07-05T09:28:29.446Z,944.9
2017-07-05T09:29:37.713Z,944.9
2017-07-05T09:30:45.624Z,944.9
2017-07-05T09:31:53.713Z,944.8
2017-07-05T09:33:01.854Z,944.8
2017-07-05T09:34:09.885Z,944.8
2017-07-05T09:35:18.044Z,944.8
2017-07-05T09:36:26.202Z,944.8
2017-07-05T09:37:34.152Z,944.9
2017-07-05T09:38:42.297Z,944.9
2017-07-05T09:39:50.329Z,944.9
2017-07-05T09:40:58.416Z,944.9
2017-07-05T09:42:06.547Z,944.9
2017-07-05T09:43:14.599Z,944.9
2017-07-05T09:44:22.811Z,944.9
2017-07-05T09:45:30.777Z,944.9
2017-07-05T09:46:38.867Z,944.9
2017-07-05T09:47:46.955Z,944.8
2017-07-05T09:48:55.043Z,944.8
2017-07-05T09:50:03.184Z,944.8
2017-07-05T09:51:11.217Z,944.8
2017-07-05T09:52:19.514Z,944.8
2017-07-05T09:53:27.439Z,944.8
2017-07-05T09:54:35.483Z,944.8
2017-07-05T09:55:43.629Z,944.8
2017-07-05T09:56:51.661Z,944.8
2017-07-05T09:57:59.748Z,944.9
2017-07-05T09:59:07.837Z,944.8
2017-07-05T10:00:15.923Z,944.8
2017-07-05T10:01:24.134Z,944.8
2017-07-05T10:02:32.099Z,944.8
2017-07-05T10:03:40.187Z,944.9
2017-07-05T10:04:48.278Z,944.9
2017-07-05T10:05:56.365Z,944.9
2017-07-05T10:07:04.512Z,944.9
2017-07-05T10:08:12.601Z,944.9
2017-07-05T10:09:20.706Z,944.8
2017-07-05T10:10:28.719Z,944.8
2017-07-05T10:11:36.805Z,944.8
2017-07-05T10:12:45.014Z,944.8
2017-07-05T10:13:52.985Z,944.8
2017-07-05T10:15:01.071Z,944.8
2017-07-05T10:16:09.163Z,944.8
2017-07-05T10:17:17.255Z,944.8
2017-07-05T10:18:25.400Z,944.8
2017-07-05T10:19:33.433Z,944.8
2017-07-05T10:20:41.665Z,944.8
2017-07-05T10:21:49.607Z,944.8
2017-07-05T10:22:57.695Z,944.8
2017-07-05T10:24:05.843Z,944.8
2017-07-05T10:25:13.874Z,944.7
2017-07-05T10:26:21.995Z,944.7
2017-07-05T10:27:30.078Z,944.7
2017-07-05T10:28:38.141Z,944.7
2017-07-05T10:29:46.285Z,944.8
2017-07-05T10:30:54.319Z,944.7
2017-07-05T10:32:02.406Z,944.7
2017-07-05T10:33:10.495Z,944.7
2017-07-05T10:34:18.585Z,944.7
2017-07-05T10:35:26.729Z,944.7
2017-07-05T10:36:34.763Z,944.6
2017-07-05T10:37:42.853Z,944.7
2017-07-05T10:38:50.940Z,944.7
2017-07-05T10:39:59.083Z,944.7
2017-07-05T10:41:07.171Z,944.6
2017-07-05T10:42:15.206Z,944.6
2017-07-05T10:43:23.294Z,944.6
2017-07-05T10:44:31.384Z,944.6
2017-07-05T10:45:39.471Z,944.6
2017-07-05T10:46:47.615Z,944.6
2017-07-05T10:47:55.802Z,944.6
2017-07-05T10:49:03.785Z,944.6
2017-07-05T10:50:11.823Z,944.6
2017-07-05T10:51:19.912Z,944.6
2017-07-05T10:52:28.057Z,944.5
2017-07-05T10:53:36.091Z,944.6
2017-07-05T10:54:44.214Z,944.5
2017-07-05T10:55:52.324Z,944.5
2017-07-05T10:57:00.355Z,944.4
2017-07-05T10:58:08.566Z,944.5
2017-07-05T10:59:16.531Z,944.5
2017-07-05T11:00:24.618Z,944.4
2017-07-05T11:01:32.710Z,944.4
2017-07-05T11:02:40.798Z,944.4
2017-07-05T11:03:48.942Z,944.4
2017-07-05T11:04:57.093Z,944.4
2017-07-05T11:06:05.192Z,944.4
2017-07-05T11:07:13.160Z,944.4
2017-07-05T11:08:21.248Z,944.3
2017-07-05T11:09:29.392Z,944.3
2017-07-05T11:10:37.424Z,944.3
2017-07-05T11:11:45.569Z,944.3
2017-07-05T11:12:53.602Z,944.3
2017-07-05T11:14:01.690Z,944.4
2017-07-05T11:15:09.900Z,944.3
2017-07-05T11:16:18.033Z,944.3
2017-07-05T11:17:25.957Z,944.3
2017-07-05T11:18:34.045Z,944.3
2017-07-05T11:19:42.135Z,944.3
2017-07-05T11:20:50.278Z,944.3
2017-07-05T11:21:58.403Z,944.3
2017-07-05T11:23:06.499Z,944.3
2017-07-05T11:24:14.489Z,944.3
2017-07-05T11:25:22.579Z,944.3
2017-07-05T11:26:30.723Z,944.3
2017-07-05T11:27:38.815Z,944.2
2017-07-05T11:28:46.842Z,944.2
2017-07-05T11:29:54.938Z,944.2
2017-07-05T11:31:03.025Z,944.2
2017-07-05T11:32:11.235Z,944.2
2017-07-05T11:33:19.374Z,944.2
2017-07-05T11:34:27.294Z,944.2
2017-07-05T11:35:35.388Z,944.2
2017-07-05T11:36:43.483Z,944.2
2017-07-05T11:37:51.629Z,944.1
2017-07-05T11:38:59.764Z,944.2
2017-07-05T11:40:07.759Z,944.1
2017-07-05T11:41:15.843Z,944.1
2017-07-05T11:42:23.928Z,944.1
2017-07-05T11:43:32.075Z,944.1
2017-07-05T11:44:40.106Z,944.1
2017-07-05T11:45:48.196Z,944.1
2017-07-05T11:46:56.285Z,944.1
2017-07-05T11:48:04.375Z,944.0
2017-07-05T11:49:12.518Z,944.1
2017-07-05T11:50:20.554Z,944.1
2017-07-05T11:51:28.640Z,944.1
2017-07-05T11:52:36.727Z,944.1
2017-07-05T11:53:44.818Z,944.1
2017-07-05T11:54:52.961Z,944.1
2017-07-05T11:56:01.149Z,944.1
2017-07-05T11:57:09.243Z,944.0
2017-07-05T11:58:17.173Z,944.0
2017-07-05T11:59:25.319Z,944.0
2017-07-05T12:00:33.406Z,944.0
2017-07-05T12:01:41.441Z,944.0
2017-07-05T12:02:49.573Z,944.1
2017-07-05T12:03:57.616Z,944.1
2017-07-05T12:05:05.705Z,944.1
2017-07-05T12:06:13.851Z,944.0
2017-07-05T12:07:21.883Z,944.0
2017-07-05T12:08:29.974Z,944.0
2017-07-05T12:09:38.062Z,944.1
2017-07-05T12:10:46.151Z,944.0
2017-07-05T12:11:54.295Z,944.0
2017-07-05T12:13:02.428Z,944.0
2017-07-05T12:14:10.539Z,944.0
2017-07-05T12:15:18.562Z,944.0
2017-07-05T12:16:26.595Z,944.0
2017-07-05T12:17:34.743Z,944.0
2017-07-05T12:18:42.772Z,943.9
2017-07-05T12:19:50.861Z,943.9
2017-07-05T12:20:58.950Z,943.9
2017-07-05T12:22:07.037Z,943.9
2017-07-05T12:23:15.182Z,943.9
2017-07-05T12:24:23.216Z,943.9
2017-07-05T12:25:31.304Z,943.9
2017-07-05T12:26:39.394Z,943.9
2017-07-05T12:27:47.481Z,943.9
2017-07-05T12:28:55.628Z,943.9
2017-07-05T12:30:03.805Z,943.9
2017-07-05T12:31:11.857Z,943.9
2017-07-05T12:32:19.836Z,943.9
2017-07-05T12:33:27.927Z,943.9
2017-07-05T12:34:36.134Z,943.8
2017-07-05T12:35:44.105Z,943.8
2017-07-05T12:36:52.216Z,943.8
2017-07-05T12:38:00.281Z,943.8
2017-07-05T12:39:08.371Z,943.8
2017-07-05T12:40:16.519Z,943.8
2017-07-05T12:41:24.551Z,943.8
2017-07-05T12:42:32.636Z,943.8
2017-07-05T12:43:40.723Z,943.8
2017-07-05T12:44:48.814Z,943.8
2017-07-05T12:45:57.024Z,943.8
2017-07-05T12:47:05.199Z,943.7
2017-07-05T12:48:13.162Z,943.8
2017-07-05T12:49:21.178Z,943.8
2017-07-05T12:50:29.264Z,943.8
2017-07-05T12:51:37.417Z,943.8
2017-07-05T12:52:45.449Z,943.7
2017-07-05T12:53:53.538Z,943.7
2017-07-05T12:55:01.624Z,943.8
2017-07-05T12:56:09.715Z,943.8
2017-07-05T12:57:17.863Z,943.7
2017-07-05T12:58:26.052Z,943.7
2017-07-05T12:59:33.982Z,943.7
2017-07-05T13:00:42.073Z,943.6
2017-07-05T13:01:50.161Z,943.6
2017-07-05T13:02:58.308Z,943.6
2017-07-05T13:04:06.453Z,943.7
2017-07-05T13:05:14.531Z,943.7
2017-07-05T13:06:22.516Z,943.7
2017-07-05T13:07:30.608Z,943.8
2017-07-05T13:08:38.752Z,943.8
2017-07-05T13:09:46.784Z,943.8
2017-07-05T13:10:54.873Z,943.8
2017-07-05T13:12:02.960Z,943.8
2017-07-05T13:13:11.051Z,943.8
2017-07-05T13:14:19.262Z,943.8
2017-07-05T13:15:27.401Z,943.8
2017-07-05T13:16:35.321Z,943.7
2017-07-05T13:17:43.404Z,943.7
2017-07-05T13:18:51.551Z,943.7
2017-07-05T13:19:59.641Z,943.7
2017-07-05T13:21:07.711Z,943.7
2017-07-05T13:22:15.768Z,943.7
2017-07-05T13:23:23.866Z,943.7
2017-07-05T13:24:31.954Z,943.8
2017-07-05T13:25:40.292Z,943.8
2017-07-05T13:26:48.331Z,943.8
2017-07-05T13:27:56.221Z,943.8
2017-07-05T13:29:04.310Z,943.8
2017-07-05T13:30:12.401Z,943.8
2017-07-05T13:31:20.544Z,943.7
2017-07-05T13:32:28.656Z,943.8
2017-07-05T13:33:36.667Z,943.7
2017-07-05T13:34:44.813Z,943.7
2017-07-05T13:35:52.843Z,943.7
2017-07-05T13:37:01.053Z,943.7
2017-07-05T13:38:09.029Z,943.7
2017-07-05T13:39:17.116Z,943.7
2017-07-05T13:40:25.207Z,943.7
2017-07-05T13:41:33.297Z,943.7
2017-07-05T13:42:41.590Z,943.6
2017-07-05T13:43:49.617Z,943.6
2017-07-05T13:44:57.560Z,943.6
2017-07-05T13:46:05.650Z,943.6
2017-07-05T13:47:13.749Z,943.6
2017-07-05T13:48:21.888Z,943.6
2017-07-05T13:49:29.918Z,943.6
2017-07-05T13:50:38.064Z,943.5
2017-07-05T13:51:46.098Z,943.6
2017-07-05T13:52:54.186Z,943.5
2017-07-05T13:54:02.330Z,943.5
2017-07-05T13:55:10.365Z,943.5
2017-07-05T13:56:18.454Z,943.5
2017-07-05T13:57:26.542Z,943.5
2017-07-05T13:58:34.632Z,943.5
2017-07-05T13:59:42.778Z,943.5
2017-07-05T14:00:50.820Z,943.6
2017-07-05T14:01:58.901Z,943.6
2017-07-05T14:03:06.989Z,943.6
2017-07-05T14:04:15.078Z,943.7
2017-07-05T14:05:23.220Z,943.7
2017-07-05T14:06:31.391Z,943.6
2017-07-05T14:07:39.343Z,943.6
2017-07-05T14:08:47.432Z,943.6
2017-07-05T14:09:55.524Z,943.6
2017-07-05T14:11:03.670Z,943.6
2017-07-05T14:12:11.702Z,943.6
2017-07-05T14:13:19.791Z,943.6
2017-07-05T14:14:27.878Z,943.6
2017-07-05T14:15:35.966Z,943.7
2017-07-05T14:16:44.235Z,943.7
2017-07-05T14:17:52.290Z,943.7
2017-07-05T14:19:00.235Z,943.7
2017-07-05T14:20:08.325Z,943.7
2017-07-05T14:21:16.414Z,943.8
2017-07-05T14:22:24.558Z,943.7
2017-07-05T14:23:32.621Z,943.7
2017-07-05T14:24:40.681Z,943.7
2017-07-05T14:25:48.769Z,943.7
2017-07-05T14:26:56.861Z,943.7
2017-07-05T14:28:05.014Z,943.7
2017-07-05T14:29:13.039Z,943.7
2017-07-05T14:30:21.129Z,943.7
2017-07-05T14:31:29.220Z,943.7
2017-07-05T14:32:37.308Z,943.6
2017-07-05T14:33:45.543Z,943.7
2017-07-05T14:34:53.571Z,943.6
2017-07-05T14:36:01.573Z,943.6
2017-07-05T14:37:09.662Z,943.6